Time;durP1;ratioP1;P1;durP2;ratioP2;P2;SDS_P1;SDS_P2;PMS_P1;PMS_P2;Temp;Humidity;BMP_temperature;BMP_pressure;BME280_temperature;BME280_humidity;BME280_pressure;Samples;Min_cycle;Max_cycle;Signal;HPM_P1;HPM_P2
2023/06/05 00:01:42;;;;;;;16.63;8.60;;;19.40;99.90;;;;;;5069896;28;20032;-62
2023/06/05 00:04:08;;;;;;;;;;;19.40;99.90;;;;;;5078130;28;20039;-63
2023/06/05 00:06:34;;;;;;;15.90;11.18;;;19.40;99.90;;;;;;5065154;28;19908;-62
2023/06/05 00:09:00;;;;;;;11.85;9.23;;;19.40;99.90;;;;;;5073140;28;20215;-62
2023/06/05 00:11:26;;;;;;;10.97;9.30;;;19.30;99.90;;;;;;5082505;28;20020;-62
2023/06/05 00:13:53;;;;;;;11.48;9.95;;;19.20;99.90;;;;;;5075316;28;20035;-63
2023/06/05 00:16:18;;;;;;;12.60;10.30;;;19.20;99.90;;;;;;5088509;28;20047;-63
2023/06/05 00:18:45;;;;;;;11.32;8.93;;;19.10;99.90;;;;;;5082958;28;20054;-62
2023/06/05 00:21:12;;;;;;;12.20;10.20;;;19.20;99.90;;;;;;5094657;28;20033;-63
2023/06/05 00:23:38;;;;;;;13.88;10.00;;;19.10;99.90;;;;;;5088577;28;20031;-62
2023/06/05 00:26:04;;;;;;;15.85;11.77;;;19.10;99.90;;;;;;5073395;28;20395;-62
2023/06/05 00:28:30;;;;;;;12.32;10.02;;;19.10;99.90;;;;;;5083044;28;20165;-62
2023/06/05 00:30:56;;;;;;;16.65;13.13;;;19.00;99.90;;;;;;5088035;28;20024;-61
2023/06/05 00:33:22;;;;;;;16.65;12.55;;;19.10;99.90;;;;;;5059394;28;20032;-61
2023/06/05 00:35:48;;;;;;;18.50;13.93;;;19.10;99.90;;;;;;5070127;28;20034;-62
2023/06/05 00:38:13;;;;;;;19.38;15.55;;;19.00;99.90;;;;;;5083503;28;20517;-61
2023/06/05 00:40:39;;;;;;;18.35;14.40;;;18.90;99.90;;;;;;5091615;28;20059;-61
2023/06/05 00:43:08;;;;;;;18.75;15.30;;;18.90;99.90;;;;;;5109223;28;20054;-60
2023/06/05 00:45:34;;;;;;;17.67;14.40;;;18.80;99.90;;;;;;5092076;28;20052;-61
2023/06/05 00:48:00;;;;;;;20.23;16.23;;;18.80;99.90;;;;;;5074233;28;20081;-60
2023/06/05 00:50:26;;;;;;;20.23;15.38;;;18.80;99.90;;;;;;5074089;28;20032;-61
2023/06/05 00:52:54;;;;;;;19.00;15.60;;;18.70;99.90;;;;;;5074222;28;20115;-61
2023/06/05 00:55:20;;;;;;;20.30;15.82;;;18.70;99.90;;;;;;5096123;28;20023;-61
2023/06/05 00:57:46;;;;;;;19.25;15.65;;;18.60;99.90;;;;;;5112346;28;20051;-61
2023/06/05 01:00:14;;;;;;;20.60;15.20;;;18.60;99.90;;;;;;5077420;28;20027;-61
2023/06/05 01:02:40;;;;;;;21.58;16.33;;;18.60;99.90;;;;;;5094132;28;20034;-60
2023/06/05 01:05:07;;;;;;;21.45;14.63;;;18.60;99.90;;;;;;5112342;28;20031;-61
2023/06/05 01:07:34;;;;;;;20.05;14.43;;;18.60;99.90;;;;;;5112385;28;20024;-61
2023/06/05 01:10:03;;;;;;;22.23;14.30;;;18.50;99.90;;;;;;5060334;28;20036;-60
2023/06/05 01:12:35;;;;;;;24.13;16.13;;;18.50;99.90;;;;;;5060429;28;20042;-59
2023/06/05 01:15:02;;;;;;;21.85;14.75;;;18.40;99.90;;;;;;5075348;28;20036;-61
2023/06/05 01:17:33;;;;;;;22.02;15.75;;;18.40;99.90;;;;;;5062923;28;20056;-61
2023/06/05 01:20:09;;;;;;;21.63;16.10;;;18.30;99.90;;;;;;5073445;28;20020;-61
2023/06/05 01:22:37;;;;;;;24.02;16.92;;;18.30;99.90;;;;;;5066988;28;20028;-59
2023/06/05 01:25:07;;;;;;;25.48;17.35;;;18.30;99.90;;;;;;5054411;28;20028;-61
2023/06/05 01:27:32;;;;;;;21.48;17.15;;;18.30;99.90;;;;;;5080036;28;20035;-61
2023/06/05 01:30:10;;;;;;;18.38;15.25;;;18.30;99.90;;;;;;5078340;28;20031;-61
2023/06/05 01:32:57;;;;;;;24.65;16.50;;;18.30;99.90;;;;;;5048836;28;20033;-61
2023/06/05 01:35:44;;;;;;;20.77;15.60;;;18.30;99.90;;;;;;5083265;28;20025;-61
2023/06/05 01:38:11;;;;;;;29.08;15.55;;;18.20;99.90;;;;;;5065011;28;20089;-59
2023/06/05 01:40:37;;;;;;;25.67;15.82;;;18.20;99.90;;;;;;5071760;28;20073;-61
2023/06/05 01:43:07;;;;;;;19.10;16.05;;;18.10;99.90;;;;;;5061432;28;20495;-61
2023/06/05 01:45:33;;;;;;;33.60;17.27;;;18.10;99.90;;;;;;5089674;28;20048;-61
2023/06/05 01:47:59;;;;;;;20.70;15.25;;;18.20;99.90;;;;;;5082102;28;20487;-61
2023/06/05 01:50:26;;;;;;;23.83;17.40;;;18.20;99.90;;;;;;5085104;28;20112;-61
2023/06/05 01:52:52;;;;;;;28.05;18.13;;;18.10;99.90;;;;;;5078619;28;20032;-61
2023/06/05 01:55:23;;;;;;;20.05;16.17;;;18.10;99.90;;;;;;5082846;28;20123;-61
2023/06/05 01:57:50;;;;;;;28.63;17.25;;;18.20;99.90;;;;;;5063735;28;20115;-61
2023/06/05 02:00:19;;;;;;;31.52;16.85;;;18.10;99.90;;;;;;5067015;28;20387;-62
2023/06/05 02:02:47;;;;;;;24.33;15.35;;;18.10;99.90;;;;;;5081773;28;20413;-62
2023/06/05 02:05:15;;;;;;;27.45;17.02;;;18.20;99.90;;;;;;5060971;28;20120;-60
2023/06/05 02:07:47;;;;;;;20.08;15.60;;;18.30;99.90;;;;;;5079888;28;20025;-60
2023/06/05 02:10:13;;;;;;;20.55;15.60;;;18.30;99.90;;;;;;5066866;28;20514;-61
2023/06/05 02:12:41;;;;;;;25.75;17.20;;;18.30;99.90;;;;;;5065544;28;20036;-58
2023/06/05 02:15:09;;;;;;;24.85;17.58;;;18.20;99.90;;;;;;5061514;28;20036;-61
2023/06/05 02:17:35;;;;;;;21.90;17.17;;;18.30;99.90;;;;;;5060836;28;20031;-60
2023/06/05 02:20:01;;;;;;;24.48;18.38;;;18.30;99.90;;;;;;5083023;28;20107;-59
2023/06/05 02:22:27;;;;;;;28.30;18.08;;;18.30;99.90;;;;;;5077041;28;20099;-60
2023/06/05 02:24:53;;;;;;;19.13;16.25;;;18.30;99.90;;;;;;5049660;28;20024;-59
2023/06/05 02:27:23;;;;;;;19.83;15.60;;;18.30;99.90;;;;;;5083158;28;20473;-62
2023/06/05 02:29:50;;;;;;;26.38;16.95;;;18.20;99.90;;;;;;5068570;28;20032;-62
2023/06/05 02:32:15;;;;;;;30.30;16.73;;;18.20;99.90;;;;;;5091011;28;20028;-61
2023/06/05 02:34:41;;;;;;;26.30;17.20;;;18.30;99.90;;;;;;5066974;28;20323;-61
2023/06/05 02:37:08;;;;;;;28.13;16.50;;;18.30;99.90;;;;;;5071711;28;20082;-61
2023/06/05 02:39:34;;;;;;;20.95;16.90;;;18.40;99.90;;;;;;5091008;28;20029;-62
2023/06/05 02:42:00;;;;;;;32.63;17.77;;;18.40;99.90;;;;;;5058837;28;20036;-60
2023/06/05 02:44:26;;;;;;;26.63;17.63;;;18.40;99.90;;;;;;5067814;28;20040;-59
2023/06/05 02:46:52;;;;;;;19.77;16.52;;;18.40;99.90;;;;;;5065950;28;20497;-60
2023/06/05 02:49:19;;;;;;;;;;;18.50;99.90;;;;;;5095063;28;20636;-60
2023/06/05 02:51:44;;;;;;;18.90;15.55;;;18.50;99.90;;;;;;5116457;27;19903;-62
2023/06/05 02:54:11;;;;;;;25.00;17.60;;;18.50;99.90;;;;;;5100508;28;20290;-60
2023/06/05 02:56:37;;;;;;;21.70;16.27;;;18.50;99.90;;;;;;5081296;28;20029;-61
2023/06/05 02:59:03;;;;;;;23.05;16.23;;;18.40;99.90;;;;;;5065945;28;20482;-60
2023/06/05 03:01:34;;;;;;;22.80;16.45;;;18.50;99.90;;;;;;5096411;28;20025;-60
2023/06/05 03:04:03;;;;;;;24.08;16.98;;;18.40;99.90;;;;;;5059203;28;20025;-60
2023/06/05 03:06:35;;;;;;;26.13;17.73;;;18.50;99.90;;;;;;5074828;28;20114;-60
2023/06/05 03:09:03;;;;;;;30.70;19.20;;;18.40;99.90;;;;;;5081982;28;20418;-61
2023/06/05 03:11:29;;;;;;;27.90;18.80;;;18.30;99.90;;;;;;5069286;28;20028;-61
2023/06/05 03:13:55;;;;;;;24.90;17.05;;;18.30;99.90;;;;;;5065655;28;20028;-61
2023/06/05 03:16:37;;;;;;;24.27;18.42;;;18.40;99.90;;;;;;5064552;28;20119;-61
2023/06/05 03:19:03;;;;;;;26.98;18.02;;;18.40;99.90;;;;;;5073339;28;20026;-61
2023/06/05 03:21:29;;;;;;;23.73;18.95;;;18.40;99.90;;;;;;5095686;28;20023;-62
2023/06/05 03:23:56;;;;;;;42.53;22.13;;;18.40;99.90;;;;;;5075772;28;20028;-61
2023/06/05 03:26:24;;;;;;;41.72;24.73;;;18.30;99.90;;;;;;5068664;28;20024;-60
2023/06/05 03:28:51;;;;;;;28.05;18.77;;;18.20;99.90;;;;;;5101206;28;20494;-61
2023/06/05 03:31:18;;;;;;;35.00;21.75;;;18.20;99.90;;;;;;5069053;28;20122;-61
2023/06/05 03:33:46;;;;;;;26.30;19.42;;;18.30;99.90;;;;;;5093531;28;20024;-60
2023/06/05 03:36:17;;;;;;;29.50;19.67;;;18.20;99.90;;;;;;5062633;28;20391;-61
2023/06/05 03:38:44;;;;;;;25.98;18.27;;;18.30;99.90;;;;;;5068441;28;20077;-61
2023/06/05 03:41:10;;;;;;;25.83;20.52;;;18.40;99.90;;;;;;5064017;28;20035;-59
2023/06/05 03:43:36;;;;;;;26.10;18.88;;;18.40;99.90;;;;;;5079690;28;20028;-59
2023/06/05 03:46:02;;;;;;;25.05;19.80;;;18.40;99.90;;;;;;5087339;28;20043;-61
2023/06/05 03:48:28;;;;;;;27.67;20.33;;;18.40;99.90;;;;;;5073412;28;20510;-60
2023/06/05 03:50:56;;;;;;;22.30;19.63;;;18.40;99.90;;;;;;5067716;28;20403;-51
2023/06/05 03:53:22;;;;;;;25.45;20.77;;;18.40;99.90;;;;;;5062348;28;20398;-60
2023/06/05 03:55:51;;;;;;;28.35;20.40;;;18.40;99.90;;;;;;5085465;28;20040;-62
2023/06/05 03:58:21;;;;;;;27.35;21.00;;;18.50;99.90;;;;;;5066771;28;20062;-63
2023/06/05 04:00:49;;;;;;;29.05;21.20;;;18.40;99.90;;;;;;5055919;28;20440;-61
2023/06/05 04:03:15;;;;;;;26.70;20.97;;;18.50;99.90;;;;;;5059133;28;20024;-60
2023/06/05 04:05:42;;;;;;;23.10;18.63;;;18.50;99.90;;;;;;5054773;28;20498;-60
2023/06/05 04:08:09;;;;;;;29.38;21.58;;;18.50;99.90;;;;;;5038507;28;20081;-61
2023/06/05 04:10:36;;;;;;;28.05;22.23;;;18.60;99.90;;;;;;5054960;28;20491;-61
2023/06/05 04:13:02;;;;;;;29.67;20.52;;;18.60;99.90;;;;;;5072811;28;20036;-59
2023/06/05 04:15:30;;;;;;;32.25;21.92;;;18.70;99.90;;;;;;5072474;28;20021;-58
2023/06/05 04:17:56;;;;;;;27.80;20.30;;;18.70;99.90;;;;;;5071441;28;20026;-61
2023/06/05 04:20:22;;;;;;;30.37;22.13;;;18.70;99.90;;;;;;5054596;28;20113;-60
2023/06/05 04:22:49;;;;;;;28.58;20.52;;;18.70;99.90;;;;;;5054733;28;20541;-60
2023/06/05 04:25:15;;;;;;;27.77;21.30;;;18.80;99.90;;;;;;5054438;28;20025;-61
2023/06/05 04:27:45;;;;;;;28.35;23.33;;;18.80;99.90;;;;;;5054673;28;20028;-61
2023/06/05 04:30:12;;;;;;;26.48;19.95;;;18.80;99.90;;;;;;5054451;28;20035;-60
2023/06/05 04:32:39;;;;;;;28.50;22.77;;;18.80;99.90;;;;;;5054384;28;20028;-60
2023/06/05 04:35:06;;;;;;;25.55;21.05;;;18.80;99.90;;;;;;5054176;28;20509;-60
2023/06/05 04:37:32;;;;;;;22.40;20.02;;;18.80;99.90;;;;;;5072317;28;20483;-61
2023/06/05 04:40:09;;;;;;;28.00;21.98;;;18.80;99.90;;;;;;5072242;28;20032;-61
2023/06/05 04:42:36;;;;;;;28.80;22.37;;;18.90;99.90;;;;;;5054312;28;20055;-60
2023/06/05 04:45:05;;;;;;;26.25;19.77;;;18.90;99.90;;;;;;5054020;28;20020;-60
2023/06/05 04:47:34;;;;;;;25.42;22.50;;;18.90;99.90;;;;;;5054213;28;20560;-60
2023/06/05 04:50:03;;;;;;;31.13;22.53;;;18.90;99.90;;;;;;5054616;28;20414;-61
2023/06/05 04:52:35;;;;;;;29.52;22.02;;;18.90;99.90;;;;;;5054057;28;20033;-59
2023/06/05 04:55:02;;;;;;;25.17;20.58;;;18.90;99.90;;;;;;5054107;28;20086;-61
2023/06/05 04:57:29;;;;;;;;;;;18.90;99.90;;;;;;5054454;28;20508;-61
2023/06/05 05:00:00;;;;;;;34.08;23.05;;;18.90;99.90;;;;;;5053764;28;19916;-60
2023/06/05 05:02:26;;;;;;;28.98;23.40;;;18.90;99.90;;;;;;5054007;28;20028;-61
2023/06/05 05:04:53;;;;;;;28.10;21.33;;;18.90;99.90;;;;;;5053330;28;20427;-62
2023/06/05 05:07:22;;;;;;;28.15;20.65;;;18.90;99.90;;;;;;5053807;28;20036;-61
2023/06/05 05:09:49;;;;;;;28.13;21.25;;;19.00;99.90;;;;;;5053760;28;20078;-60
2023/06/05 05:12:14;;;;;;;;;;;19.00;99.90;;;;;;5072179;28;20556;-60
2023/06/05 05:14:41;;;;;;;24.58;20.90;;;19.00;99.90;;;;;;5087075;28;19927;-60
2023/06/05 05:17:07;;;;;;;31.83;22.33;;;19.00;99.90;;;;;;5053797;28;20059;-61
2023/06/05 05:19:34;;;;;;;28.98;21.23;;;19.00;99.90;;;;;;5053661;28;20029;-60
2023/06/05 05:22:01;;;;;;;30.88;23.40;;;19.00;99.90;;;;;;5053725;28;20036;-60
2023/06/05 05:24:28;;;;;;;;;;;19.00;99.90;;;;;;5070762;28;20028;-61
2023/06/05 05:26:54;;;;;;;26.08;20.30;;;19.00;99.90;;;;;;5071390;28;19908;-61
2023/06/05 05:29:20;;;;;;;28.48;23.48;;;19.00;99.90;;;;;;5053520;28;20029;-62
2023/06/05 05:31:46;;;;;;;30.15;22.33;;;19.10;99.90;;;;;;5053615;28;20025;-61
2023/06/05 05:34:13;;;;;;;36.05;23.23;;;19.10;99.90;;;;;;5053649;28;20028;-60
2023/06/05 05:36:39;;;;;;;26.05;22.45;;;19.10;99.90;;;;;;5053270;28;20044;-60
2023/06/05 05:39:07;;;;;;;25.52;21.20;;;19.10;99.90;;;;;;5053536;28;20119;-62
2023/06/05 05:41:33;;;;;;;26.55;22.20;;;19.10;99.90;;;;;;5071770;28;20386;-61
2023/06/05 05:43:59;;;;;;;27.65;22.95;;;19.10;99.90;;;;;;5071415;28;20085;-60
2023/06/05 05:46:25;;;;;;;30.60;23.15;;;19.20;99.90;;;;;;5071266;28;20032;-61
2023/06/05 05:48:51;;;;;;;29.80;22.45;;;19.20;99.90;;;;;;5053502;28;20083;-61
2023/06/05 05:51:17;;;;;;;30.40;21.73;;;19.30;99.90;;;;;;5071817;28;20438;-61
2023/06/05 05:53:43;;;;;;;29.17;23.20;;;19.30;99.90;;;;;;5071324;28;20034;-61
2023/06/05 05:56:09;;;;;;;24.27;20.48;;;19.30;99.90;;;;;;5069697;28;20033;-62
2023/06/05 05:58:35;;;;;;;28.40;23.10;;;19.30;99.90;;;;;;5071116;28;20036;-61
2023/06/05 06:01:01;;;;;;;31.88;22.90;;;19.30;99.90;;;;;;5071381;28;20025;-61
2023/06/05 06:03:27;;;;;;;27.70;23.65;;;19.30;99.90;;;;;;5053484;28;20033;-61
2023/06/05 06:05:53;;;;;;;31.13;23.67;;;19.40;99.90;;;;;;5069903;28;20039;-62
2023/06/05 06:08:20;;;;;;;29.63;23.77;;;19.40;99.90;;;;;;5071034;28;20037;-62
2023/06/05 06:10:45;;;;;;;29.25;22.27;;;19.40;99.90;;;;;;5071193;28;20391;-61
2023/06/05 06:13:12;;;;;;;29.75;24.30;;;19.50;99.90;;;;;;5071125;28;20024;-61
2023/06/05 06:15:38;;;;;;;23.83;21.33;;;19.50;99.90;;;;;;5070899;28;20376;-61
2023/06/05 06:18:07;;;;;;;26.83;21.30;;;19.60;99.90;;;;;;5073274;28;20076;-61
2023/06/05 06:20:33;;;;;;;29.27;22.92;;;19.60;99.90;;;;;;5074885;28;20686;-59
2023/06/05 06:22:59;;;;;;;30.33;24.40;;;19.60;99.90;;;;;;5074799;28;20166;-62
2023/06/05 06:25:28;;;;;;;28.95;23.67;;;19.60;99.90;;;;;;5074627;28;20116;-61
2023/06/05 06:28:01;;;;;;;28.80;23.42;;;19.60;99.90;;;;;;5074730;28;20039;-61
2023/06/05 06:30:27;;;;;;;28.63;22.73;;;19.60;99.90;;;;;;5056773;28;20042;-62
2023/06/05 06:32:57;;;;;;;26.17;23.17;;;19.70;99.90;;;;;;5056903;28;20031;-62
2023/06/05 06:35:27;;;;;;;29.50;24.15;;;19.70;99.90;;;;;;5056313;28;20722;-60
2023/06/05 06:37:54;;;;;;;25.48;22.70;;;19.70;99.90;;;;;;5074575;28;20467;-61
2023/06/05 06:40:21;;;;;;;27.65;24.02;;;19.70;99.90;;;;;;5074445;28;20536;-59
2023/06/05 06:42:47;;;;;;;28.63;21.85;;;19.70;99.90;;;;;;5056609;28;20029;-61
2023/06/05 06:45:31;;;;;;;24.92;22.25;;;19.70;99.90;;;;;;5074766;28;20038;-60
2023/06/05 06:47:57;;;;;;;25.35;21.80;;;19.80;99.90;;;;;;5074465;28;20036;-62
2023/06/05 06:50:23;;;;;;;26.85;23.98;;;19.80;99.90;;;;;;5056353;28;20032;-62
2023/06/05 06:52:49;;;;;;;25.20;21.48;;;19.80;99.90;;;;;;5074241;28;20090;-61
2023/06/05 06:55:15;;;;;;;23.93;20.87;;;19.80;99.90;;;;;;5056280;28;20406;-61
2023/06/05 06:57:41;;;;;;;24.77;22.08;;;19.90;99.90;;;;;;5056628;28;20617;-61
2023/06/05 07:00:09;;;;;;;28.98;22.20;;;19.90;99.90;;;;;;5074142;28;20032;-61
2023/06/05 07:02:37;;;;;;;22.33;20.00;;;20.00;99.90;;;;;;5074089;28;20027;-59
2023/06/05 07:05:03;;;;;;;26.02;19.77;;;20.00;99.90;;;;;;5073856;28;20032;-62
2023/06/05 07:07:29;;;;;;;21.93;19.63;;;20.00;99.90;;;;;;5074355;28;20028;-61
2023/06/05 07:09:57;;;;;;;26.90;22.52;;;20.00;99.90;;;;;;5074089;28;20035;-61
2023/06/05 07:12:23;;;;;;;23.77;21.00;;;20.00;99.90;;;;;;5074038;28;20036;-61
2023/06/05 07:14:50;;;;;;;24.25;20.10;;;20.10;99.90;;;;;;5073790;28;20039;-61
2023/06/05 07:17:15;;;;;;;21.52;19.08;;;20.00;99.90;;;;;;5055973;28;20027;-61
2023/06/05 07:19:41;;;;;;;21.13;18.27;;;20.10;99.90;;;;;;5055760;28;20029;-61
2023/06/05 07:22:07;;;;;;;22.02;19.70;;;20.10;99.90;;;;;;5073897;28;20037;-61
2023/06/05 07:24:38;;;;;;;26.95;20.30;;;20.10;99.90;;;;;;5074038;28;20028;-60
2023/06/05 07:27:04;;;;;;;23.80;19.50;;;20.00;99.90;;;;;;5055920;28;20696;-61
2023/06/05 07:29:31;;;;;;;19.90;17.90;;;19.90;99.90;;;;;;5073726;28;20047;-61
2023/06/05 07:31:58;;;;;;;18.63;13.18;;;19.90;99.90;;;;;;5073930;28;20040;-62
2023/06/05 07:34:25;;;;;;;10.23;8.05;;;19.70;99.90;;;;;;5073631;28;20024;-60
2023/06/05 07:36:52;;;;;;;10.23;7.32;;;19.60;99.90;;;;;;5055422;28;20029;-62
2023/06/05 07:39:20;;;;;;;8.25;7.45;;;19.60;99.90;;;;;;5073552;28;20394;-62
2023/06/05 07:41:45;;;;;;;7.68;6.88;;;19.60;99.90;;;;;;5073432;28;20024;-59
2023/06/05 07:44:14;;;;;;;8.00;6.40;;;19.80;99.90;;;;;;5073365;28;20025;-61
2023/06/05 07:46:41;;;;;;;5.13;4.63;;;19.90;99.90;;;;;;5073165;28;20032;-62
2023/06/05 07:49:07;;;;;;;5.53;3.88;;;20.00;99.90;;;;;;5055331;28;20063;-61
2023/06/05 07:51:35;;;;;;;6.18;4.15;;;20.10;99.90;;;;;;5073328;28;20487;-61
2023/06/05 07:54:05;;;;;;;6.70;4.28;;;20.10;99.90;;;;;;5072049;28;20036;-60
2023/06/05 07:56:33;;;;;;;5.25;4.05;;;20.20;99.90;;;;;;5072920;28;20380;-61
2023/06/05 07:58:59;;;;;;;4.15;3.75;;;20.20;99.90;;;;;;5073413;28;20021;-61
2023/06/05 08:01:25;;;;;;;6.32;3.55;;;20.30;99.90;;;;;;5073039;28;20051;-61
2023/06/05 08:03:51;;;;;;;5.32;3.78;;;20.30;99.90;;;;;;5073030;28;20031;-61
2023/06/05 08:06:17;;;;;;;4.50;4.10;;;20.40;99.90;;;;;;5072788;28;20402;-61
2023/06/05 08:08:43;;;;;;;4.70;4.05;;;20.20;99.90;;;;;;5072946;28;20021;-61
2023/06/05 08:11:09;;;;;;;7.73;4.10;;;20.20;99.90;;;;;;5071727;28;20313;-62
2023/06/05 08:13:38;;;;;;;4.57;4.15;;;20.10;99.90;;;;;;5054825;28;20040;-61
2023/06/05 08:16:04;;;;;;;5.50;4.63;;;20.20;99.90;;;;;;5072544;28;20458;-62
2023/06/05 08:18:30;;;;;;;7.07;5.53;;;20.30;99.90;;;;;;5072612;28;20021;-62
2023/06/05 08:20:56;;;;;;;4.75;4.28;;;20.40;99.90;;;;;;5072749;28;20020;-62
2023/06/05 08:23:22;;;;;;;10.27;4.90;;;20.40;99.90;;;;;;5054675;28;20395;-59
2023/06/05 08:25:48;;;;;;;5.85;4.70;;;20.50;99.90;;;;;;5072341;28;20032;-63
2023/06/05 08:28:17;;;;;;;4.57;4.18;;;20.50;99.90;;;;;;5071171;28;20064;-62
2023/06/05 08:30:44;;;;;;;5.32;4.82;;;20.60;99.90;;;;;;5072499;28;20101;-62
2023/06/05 08:33:10;;;;;;;6.00;5.30;;;20.50;99.90;;;;;;5072691;28;20050;-62
2023/06/05 08:35:37;;;;;;;6.80;4.72;;;20.60;99.90;;;;;;5072236;28;20499;-60
2023/06/05 08:38:03;;;;;;;7.32;5.22;;;20.50;99.90;;;;;;5054489;28;20483;-62
2023/06/05 08:40:29;;;;;;;8.10;5.78;;;20.50;99.90;;;;;;5071449;28;20037;-61
2023/06/05 08:42:56;;;;;;;6.33;5.73;;;20.40;99.90;;;;;;5072342;28;20025;-60
2023/06/05 08:45:22;;;;;;;5.30;4.80;;;20.40;99.90;;;;;;5072168;28;20184;-61
2023/06/05 08:47:54;;;;;;;6.43;5.53;;;20.40;99.90;;;;;;5072235;28;20086;-62
2023/06/05 08:50:19;;;;;;;5.80;5.22;;;20.40;99.90;;;;;;5072047;28;20036;-60
2023/06/05 08:52:48;;;;;;;8.85;6.50;;;20.30;99.90;;;;;;5072094;28;20077;-62
2023/06/05 08:55:14;;;;;;;5.78;5.22;;;20.20;99.90;;;;;;5071698;28;20086;-62
2023/06/05 08:57:42;;;;;;;5.43;4.93;;;20.10;99.90;;;;;;5071970;28;20017;-61
2023/06/05 09:00:13;;;;;;;5.53;5.03;;;20.10;99.90;;;;;;5071785;28;20036;-62
2023/06/05 09:02:48;;;;;;;5.53;4.95;;;20.00;99.90;;;;;;5071935;28;20040;-62
2023/06/05 09:05:17;;;;;;;5.45;4.95;;;20.00;99.90;;;;;;5071765;28;20032;-61
2023/06/05 09:07:43;;;;;;;6.07;5.47;;;20.00;99.90;;;;;;5072071;28;20045;-62
2023/06/05 09:10:27;;;;;;;4.88;4.28;;;20.00;99.90;;;;;;5071744;28;20033;-62
2023/06/05 09:12:57;;;;;;;5.28;4.78;;;19.90;99.90;;;;;;5053954;28;20103;-62
2023/06/05 09:15:27;;;;;;;5.45;4.90;;;19.90;99.90;;;;;;5071571;28;20032;-62
2023/06/05 09:18:10;;;;;;;6.35;5.05;;;19.90;99.90;;;;;;5071621;28;20028;-62
2023/06/05 09:20:45;;;;;;;8.00;5.65;;;19.90;99.90;;;;;;5071624;28;20028;-62
2023/06/05 09:23:27;;;;;;;6.43;4.90;;;19.90;99.90;;;;;;5053794;28;20039;-61
2023/06/05 09:25:56;;;;;;;7.50;5.47;;;19.90;99.90;;;;;;5071462;28;20036;-60
2023/06/05 09:28:22;;;;;;;7.68;6.15;;;19.90;99.90;;;;;;5071415;28;20029;-62
2023/06/05 09:31:02;;;;;;;6.63;5.57;;;19.90;99.90;;;;;;5053634;28;20028;-62
2023/06/05 09:33:31;;;;;;;6.30;5.32;;;20.00;99.90;;;;;;5071629;28;20629;-62
2023/06/05 09:36:05;;;;;;;6.28;5.07;;;20.00;99.90;;;;;;5071328;28;20033;-61
2023/06/05 09:38:31;;;;;;;5.82;5.25;;;20.10;99.90;;;;;;5053545;28;20398;-62
2023/06/05 09:41:03;;;;;;;5.77;5.03;;;20.10;99.90;;;;;;5071405;28;20017;-60
2023/06/05 09:43:29;;;;;;;7.20;6.32;;;20.10;99.90;;;;;;5071477;28;20735;-62
2023/06/05 09:45:55;;;;;;;7.10;5.68;;;20.10;99.90;;;;;;5071313;28;20032;-61
2023/06/05 09:48:20;;;;;;;7.97;5.22;;;20.20;99.90;;;;;;5053382;28;20039;-62
2023/06/05 09:50:46;;;;;;;5.60;5.10;;;20.20;99.90;;;;;;5071457;28;20020;-62
2023/06/05 09:53:17;;;;;;;6.25;5.65;;;20.10;99.90;;;;;;5074400;28;20033;-63
2023/06/05 09:55:44;;;;;;;5.35;4.85;;;20.20;99.90;;;;;;5057630;28;20035;-62
2023/06/05 09:58:13;;;;;;;6.75;5.80;;;20.30;99.90;;;;;;5058243;28;20021;-62
2023/06/05 10:00:41;;;;;;;7.55;5.90;;;20.30;99.90;;;;;;5075571;28;20040;-61
2023/06/05 10:03:16;;;;;;;6.60;5.88;;;20.40;99.90;;;;;;5074128;28;20027;-62
2023/06/05 10:05:44;;;;;;;8.27;6.25;;;20.40;99.90;;;;;;5057099;28;20050;-62
2023/06/05 10:08:14;;;;;;;6.18;5.57;;;20.50;99.90;;;;;;5057208;28;20055;-62
2023/06/05 10:10:41;;;;;;;6.85;5.53;;;20.50;99.90;;;;;;5075597;28;20036;-62
2023/06/05 10:13:07;;;;;;;5.82;5.32;;;20.60;99.90;;;;;;5057362;28;20115;-62
2023/06/05 10:15:34;;;;;;;8.98;6.43;;;20.70;99.90;;;;;;5087876;28;20074;-62
2023/06/05 10:18:09;;;;;;;6.28;5.35;;;20.70;99.90;;;;;;5082975;28;20486;-62
2023/06/05 10:20:36;;;;;;;7.25;5.63;;;20.70;99.90;;;;;;5093623;28;20556;-61
2023/06/05 10:23:04;;;;;;;6.22;5.63;;;20.60;99.90;;;;;;5094423;28;20099;-61
2023/06/05 10:25:30;;;;;;;8.85;6.18;;;20.60;99.90;;;;;;5059912;28;20149;-62
2023/06/05 10:28:14;;;;;;;6.88;6.10;;;20.70;99.90;;;;;;5075822;28;20028;-60
2023/06/05 10:31:13;;;;;;;6.50;5.90;;;20.80;99.90;;;;;;5075864;28;20040;-61
2023/06/05 10:33:48;;;;;;;6.45;5.85;;;20.90;99.90;;;;;;5075800;28;20268;-61
2023/06/05 10:36:55;;;;;;;8.38;6.57;;;20.80;99.90;;;;;;5078089;28;20032;-62
2023/06/05 10:39:24;;;;;;;8.13;6.63;;;20.90;99.90;;;;;;5083228;28;20024;-61
2023/06/05 10:41:51;;;;;;;7.10;5.95;;;21.00;99.90;;;;;;5070209;28;20050;-60
2023/06/05 10:44:17;;;;;;;7.05;6.35;;;21.00;99.90;;;;;;5066619;28;20420;-61
2023/06/05 10:46:42;;;;;;;6.47;5.88;;;21.00;99.90;;;;;;5089580;28;20162;-61
2023/06/05 10:49:12;;;;;;;7.50;6.80;;;21.10;99.90;;;;;;5089711;28;20024;-61
2023/06/05 10:51:45;;;;;;;6.97;6.28;;;21.10;99.90;;;;;;5086714;28;20028;-61
2023/06/05 10:54:16;;;;;;;7.05;6.38;;;21.10;99.90;;;;;;5075799;28;20043;-61
2023/06/05 10:56:58;;;;;;;6.38;5.78;;;21.10;99.90;;;;;;5091000;28;20059;-61
2023/06/05 10:59:31;;;;;;;7.63;6.15;;;21.00;99.90;;;;;;5075053;28;20033;-61
2023/06/05 11:02:12;;;;;;;5.88;5.28;;;21.00;99.90;;;;;;5085571;28;20085;-61
2023/06/05 11:04:58;;;;;;;5.60;4.38;;;20.80;99.90;;;;;;5079638;28;20047;-61
2023/06/05 11:07:24;;;;;;;4.97;3.95;;;20.50;99.90;;;;;;5081716;28;20564;-61
2023/06/05 11:10:15;;;;;;;5.05;4.22;;;20.20;99.90;;;;;;5088724;28;20024;-61
2023/06/05 11:12:41;;;;;;;5.68;3.70;;;20.10;99.90;;;;;;5079253;28;20025;-61
2023/06/05 11:15:28;;;;;;;4.88;4.38;;;20.00;99.90;;;;;;5075347;28;20093;-61
2023/06/05 11:17:54;;;;;;;6.13;4.00;;;20.10;99.90;;;;;;5091994;28;20036;-61
2023/06/05 11:20:28;;;;;;;5.38;3.65;;;20.00;99.90;;;;;;5069294;28;20024;-61
2023/06/05 11:22:57;;;;;;;5.47;4.40;;;20.00;99.90;;;;;;5088243;28;20021;-61
2023/06/05 11:25:28;;;;;;;4.05;3.72;;;20.10;99.90;;;;;;5061689;28;20041;-61
2023/06/05 11:28:02;;;;;;;6.45;4.45;;;20.20;99.90;;;;;;5114293;28;20050;-61
2023/06/05 11:30:33;;;;;;;4.78;4.35;;;20.20;99.90;;;;;;5088731;28;20032;-61
2023/06/05 11:33:08;;;;;;;7.15;4.90;;;20.30;99.90;;;;;;5088636;28;20032;-62
2023/06/05 11:35:35;;;;;;;4.72;4.28;;;20.30;99.90;;;;;;5083718;28;20502;-61
2023/06/05 11:38:21;;;;;;;6.53;4.60;;;20.50;99.90;;;;;;5080308;28;20048;-62
2023/06/05 11:40:48;;;;;;;6.03;5.40;;;20.60;99.90;;;;;;5081375;28;20052;-61
2023/06/05 11:43:15;;;;;;;5.72;5.03;;;20.70;99.90;;;;;;5087804;28;20086;-59
2023/06/05 11:45:48;;;;;;;6.43;5.72;;;20.80;99.90;;;;;;5088117;28;20035;-61
2023/06/05 11:48:14;;;;;;;6.28;4.97;;;20.90;99.90;;;;;;5081549;28;20123;-61
2023/06/05 11:50:58;;;;;;;8.43;5.60;;;21.00;99.90;;;;;;5086669;28;20032;-61
2023/06/05 11:53:25;;;;;;;7.32;5.82;;;21.10;99.90;;;;;;5058227;28;20028;-62
2023/06/05 11:58:25;;;;;;;7.22;6.13;;;21.50;99.90;;;;;;5083832;28;20037;-62
2023/06/05 12:01:03;;;;;;;6.70;6.10;;;21.80;99.90;;;;;;5100017;28;20020;-62
2023/06/05 12:03:29;;;;;;;7.95;5.88;;;22.00;99.90;;;;;;5045812;28;20486;-61
2023/06/05 12:05:54;;;;;;;6.88;6.18;;;22.20;99.90;;;;;;5078299;28;20063;-61
2023/06/05 12:08:27;;;;;;;8.23;6.20;;;22.30;99.90;;;;;;5105362;28;20036;-60
2023/06/05 12:10:55;;;;;;;7.13;6.50;;;22.40;99.90;;;;;;5094405;28;20123;-61
2023/06/05 12:13:21;;;;;;;6.53;5.80;;;22.60;99.90;;;;;;5074142;28;20103;-62
2023/06/05 12:15:57;;;;;;;6.80;6.10;;;22.80;99.90;;;;;;5067969;28;20037;-61
2023/06/05 12:18:33;;;;;;;7.88;5.88;;;22.90;99.60;;;;;;5063935;28;20076;-61
2023/06/05 12:21:03;;;;;;;7.47;5.97;;;23.10;99.20;;;;;;5060254;28;20086;-61
2023/06/05 12:23:32;;;;;;;7.43;6.72;;;23.40;99.90;;;;;;5074463;28;20398;-62
2023/06/05 12:26:04;;;;;;;6.80;6.20;;;23.60;99.90;;;;;;5091602;28;20031;-62
2023/06/05 12:28:31;;;;;;;6.22;5.55;;;23.70;99.90;;;;;;5064243;28;20040;-61
2023/06/05 12:31:00;;;;;;;6.57;5.53;;;23.90;99.90;;;;;;5078244;28;20085;-61
2023/06/05 12:33:25;;;;;;;6.53;5.70;;;24.10;98.90;;;;;;5053931;28;20074;-62
2023/06/05 12:36:03;;;;;;;6.23;5.63;;;24.20;98.50;;;;;;5076183;28;20027;-61
2023/06/05 12:38:29;;;;;;;6.35;5.72;;;24.20;97.40;;;;;;5064726;28;20024;-61
2023/06/05 12:40:55;;;;;;;5.90;5.27;;;24.20;97.00;;;;;;5085238;28;20474;-61
2023/06/05 12:43:21;;;;;;;7.90;6.33;;;24.20;96.60;;;;;;5076423;28;20414;-61
2023/06/05 12:45:47;;;;;;;7.90;6.63;;;24.10;96.50;;;;;;5076708;28;20528;-61